createdAt,value
2022-08-07T00:02:35.339Z,15.46
2022-08-07T00:04:09.623Z,15.51
2022-08-07T00:06:45.496Z,15.46
2022-08-07T00:09:22.841Z,15.41
2022-08-07T00:11:55.494Z,15.33
2022-08-07T00:14:25.486Z,15.31
2022-08-07T00:16:52.718Z,15.11
2022-08-07T00:19:21.685Z,15.09
2022-08-07T00:21:57.053Z,14.93
2022-08-07T00:24:29.271Z,15.09
2022-08-07T00:27:06.193Z,14.99
2022-08-07T00:29:33.862Z,14.96
2022-08-07T00:32:05.762Z,14.91
2022-08-07T00:34:33.619Z,14.85
2022-08-07T00:37:02.892Z,14.75
2022-08-07T00:39:32.434Z,14.61
2022-08-07T00:42:01.974Z,14.66
2022-08-07T00:44:33.184Z,14.64
2022-08-07T00:47:00.478Z,14.55
2022-08-07T00:50:21.367Z,14.50
2022-08-07T00:52:17.729Z,14.48
2022-08-07T00:54:47.282Z,14.39
2022-08-07T00:57:22.278Z,14.27
2022-08-07T00:59:49.495Z,14.36
2022-08-07T01:02:28.785Z,14.17
2022-08-07T01:04:58.637Z,14.24
2022-08-07T01:07:27.604Z,14.18
2022-08-07T01:10:06.322Z,14.03
2022-08-07T01:12:40.096Z,13.98
2022-08-07T01:15:22.507Z,13.98
2022-08-07T01:18:03.012Z,14.00
2022-08-07T01:20:43.078Z,13.94
2022-08-07T01:23:12.984Z,13.89
2022-08-07T01:25:55.751Z,13.78
2022-08-07T01:28:23.746Z,13.81
2022-08-07T01:30:52.166Z,13.78
2022-08-07T01:33:18.842Z,13.74
2022-08-07T01:35:53.594Z,13.62
2022-08-07T01:38:24.793Z,13.73
2022-08-07T01:40:55.696Z,13.66
2022-08-07T01:43:23.928Z,13.55
2022-08-07T01:45:54.586Z,13.66
2022-08-07T01:48:30.597Z,13.64
2022-08-07T01:51:24.351Z,13.65
2022-08-07T01:54:08.601Z,13.63
2022-08-07T01:56:53.258Z,13.59
2022-08-07T01:59:34.002Z,13.48
2022-08-07T02:02:10.469Z,13.53
2022-08-07T02:04:55.651Z,13.56
2022-08-07T02:07:44.753Z,13.50
2022-08-07T02:10:14.501Z,13.47
2022-08-07T02:12:46.413Z,13.46
2022-08-07T02:15:22.615Z,13.14
2022-08-07T02:17:51.905Z,13.43
2022-08-07T02:20:23.900Z,13.18
2022-08-07T02:22:55.331Z,13.34
2022-08-07T02:26:10.142Z,13.36
2022-08-07T02:28:12.941Z,13.27
2022-08-07T02:30:40.799Z,13.29
2022-08-07T02:33:10.423Z,13.11
2022-08-07T02:36:29.364Z,13.17
2022-08-07T02:38:31.943Z,13.03
2022-08-07T02:41:00.704Z,13.15
2022-08-07T02:43:28.752Z,13.10
2022-08-07T02:46:01.650Z,12.92
2022-08-07T02:48:29.712Z,13.02
2022-08-07T02:50:59.594Z,12.93
2022-08-07T02:53:38.309Z,12.91
2022-08-07T02:56:17.597Z,12.70
2022-08-07T02:58:54.249Z,12.80
2022-08-07T03:01:35.592Z,12.68
2022-08-07T03:04:07.814Z,12.64
2022-08-07T03:06:41.991Z,12.67
2022-08-07T03:09:11.843Z,12.61
2022-08-07T03:11:52.489Z,12.54
2022-08-07T03:14:26.105Z,12.48
2022-08-07T03:16:55.573Z,12.43
2022-08-07T03:19:22.918Z,12.41
2022-08-07T03:21:51.227Z,12.28
2022-08-07T03:24:27.214Z,12.39
2022-08-07T03:26:58.066Z,12.26
2022-08-07T03:29:30.525Z,12.26
2022-08-07T03:31:58.038Z,12.28
2022-08-07T03:34:27.942Z,12.31
2022-08-07T03:36:57.317Z,12.23
2022-08-07T03:39:46.007Z,12.13
2022-08-07T03:42:14.192Z,12.14
2022-08-07T03:44:41.467Z,12.26
2022-08-07T03:47:10.824Z,12.04
2022-08-07T03:49:39.441Z,12.07
2022-08-07T03:52:08.219Z,12.18
2022-08-07T03:54:55.072Z,11.88
2022-08-07T03:58:32.706Z,11.97
2022-08-07T04:00:14.328Z,12.08
2022-08-07T04:02:47.496Z,12.02
2022-08-07T04:05:19.780Z,11.96
2022-08-07T04:07:51.683Z,11.84
2022-08-07T04:10:19.984Z,11.93
2022-08-07T04:12:48.879Z,11.87
2022-08-07T04:15:18.200Z,11.80
2022-08-07T04:18:56.670Z,11.73
2022-08-07T04:20:32.170Z,11.72
2022-08-07T04:23:06.424Z,11.74
2022-08-07T04:25:38.982Z,11.70
2022-08-07T04:28:10.384Z,11.58
2022-08-07T04:30:55.641Z,11.61
2022-08-07T04:33:24.774Z,11.56
2022-08-07T04:35:53.976Z,11.47
2022-08-07T04:38:21.888Z,11.52
2022-08-07T04:40:52.106Z,11.46
2022-08-07T04:44:10.532Z,11.49
2022-08-07T04:46:59.368Z,11.46
2022-08-07T04:49:37.781Z,11.18
2022-08-07T04:52:10.998Z,11.45
2022-08-07T04:54:54.980Z,11.43
2022-08-07T04:58:32.100Z,11.28
2022-08-07T05:00:30.796Z,11.23
2022-08-07T05:03:17.160Z,11.27
2022-08-07T05:06:19.965Z,11.34
2022-08-07T05:09:08.975Z,11.37
2022-08-07T05:11:58.730Z,11.38
2022-08-07T05:14:54.051Z,11.29
2022-08-07T05:18:00.600Z,11.30
2022-08-07T05:20:16.311Z,11.17
2022-08-07T05:22:46.115Z,11.24
2022-08-07T05:25:25.866Z,11.46
2022-08-07T05:28:21.260Z,11.44
2022-08-07T05:30:52.161Z,11.44
2022-08-07T05:33:21.360Z,11.62
2022-08-07T05:35:50.725Z,11.64
2022-08-07T05:39:00.704Z,11.70
2022-08-07T05:41:14.355Z,11.95
2022-08-07T05:44:01.554Z,12.48
2022-08-07T05:46:36.290Z,12.83
2022-08-07T05:49:12.040Z,13.04
2022-08-07T05:51:42.307Z,13.61
2022-08-07T05:54:19.510Z,13.80
2022-08-07T05:56:58.023Z,14.09
2022-08-07T05:59:27.586Z,14.35
2022-08-07T06:01:57.278Z,14.39
2022-08-07T06:04:26.305Z,14.68
2022-08-07T06:07:03.803Z,14.73
2022-08-07T06:10:04.273Z,14.72
2022-08-07T06:12:21.038Z,15.03
2022-08-07T06:14:55.076Z,15.19
2022-08-07T06:17:37.976Z,15.19
2022-08-07T06:20:12.328Z,15.14
2022-08-07T06:23:09.357Z,14.95
2022-08-07T06:25:54.051Z,14.99
2022-08-07T06:28:27.923Z,15.19
2022-08-07T06:30:56.259Z,15.35
2022-08-07T06:33:26.317Z,15.48
2022-08-07T06:36:12.295Z,15.49
2022-08-07T06:38:58.835Z,15.75
2022-08-07T06:41:59.235Z,15.91
2022-08-07T06:44:31.140Z,15.99
2022-08-07T06:47:10.662Z,16.31
2022-08-07T06:49:51.218Z,16.48
2022-08-07T06:52:31.272Z,16.59
2022-08-07T06:55:33.997Z,16.67
2022-08-07T06:57:57.146Z,16.82
2022-08-07T07:00:24.715Z,17.00
2022-08-07T07:02:57.437Z,17.18
2022-08-07T07:06:03.947Z,17.22
2022-08-07T07:08:18.542Z,17.54
2022-08-07T07:10:56.730Z,17.75
2022-08-07T07:13:41.630Z,17.94
2022-08-07T07:16:30.499Z,18.10
2022-08-07T07:19:34.131Z,18.30
2022-08-07T07:22:12.114Z,18.35
2022-08-07T07:24:43.161Z,18.58
2022-08-07T07:27:35.684Z,18.72
2022-08-07T07:30:32.355Z,18.97
2022-08-07T07:33:06.127Z,19.08
2022-08-07T07:35:43.757Z,19.26
2022-08-07T07:38:23.594Z,19.43
2022-08-07T07:40:52.194Z,19.58
2022-08-07T07:43:27.525Z,19.67
2022-08-07T07:46:37.884Z,19.93
2022-08-07T07:48:59.922Z,19.84
2022-08-07T07:51:58.468Z,19.97
2022-08-07T07:54:25.032Z,20.32
2022-08-07T07:56:55.369Z,20.32
2022-08-07T07:59:52.305Z,20.37
2022-08-07T08:02:34.180Z,20.54
2022-08-07T08:05:05.189Z,20.76
2022-08-07T08:07:35.693Z,20.91
2022-08-07T08:10:14.868Z,21.03
2022-08-07T08:13:00.602Z,21.20
2022-08-07T08:15:57.919Z,21.38
2022-08-07T08:18:28.138Z,21.73
2022-08-07T08:20:55.777Z,21.88
2022-08-07T08:23:42.609Z,22.06
2022-08-07T08:26:31.012Z,22.21
2022-08-07T08:29:01.185Z,22.25
2022-08-07T08:32:17.030Z,22.23
2022-08-07T08:34:27.107Z,22.45
2022-08-07T08:36:58.046Z,22.68
2022-08-07T08:39:39.581Z,22.83
2022-08-07T08:42:31.893Z,22.90
2022-08-07T08:45:13.188Z,23.25
2022-08-07T08:47:52.773Z,23.39
2022-08-07T08:50:34.918Z,23.56
2022-08-07T08:53:19.238Z,23.74
2022-08-07T08:56:02.445Z,23.92
2022-08-07T08:58:57.202Z,24.12
2022-08-07T09:01:43.808Z,24.29
2022-08-07T09:04:31.605Z,24.39
2022-08-07T09:07:06.155Z,24.46
2022-08-07T09:10:02.514Z,24.69
2022-08-07T09:12:54.339Z,24.97
2022-08-07T09:16:22.697Z,25.09
2022-08-07T09:18:53.369Z,25.42
2022-08-07T09:21:33.784Z,25.75
2022-08-07T09:24:55.333Z,25.89
2022-08-07T09:27:30.343Z,26.07
2022-08-07T09:30:08.794Z,26.06
2022-08-07T09:33:05.236Z,26.29
2022-08-07T09:36:00.951Z,26.32
2022-08-07T09:39:27.394Z,26.59
2022-08-07T09:42:17.005Z,26.69
2022-08-07T09:47:20.215Z,26.87
2022-08-07T09:48:07.537Z,27.13
2022-08-07T09:50:53.142Z,27.22
2022-08-07T09:53:22.569Z,27.44
2022-08-07T09:56:03.674Z,27.71
2022-08-07T09:58:53.151Z,28.01
2022-08-07T10:01:51.222Z,28.29
2022-08-07T10:04:19.916Z,28.75
2022-08-07T10:07:39.658Z,29.12
2022-08-07T10:10:21.518Z,29.30
2022-08-07T10:13:54.834Z,29.60
2022-08-07T10:16:49.028Z,29.86
2022-08-07T10:19:40.122Z,29.96
2022-08-07T10:22:50.862Z,30.07
2022-08-07T10:25:55.026Z,30.28
2022-08-07T10:28:30.607Z,30.45
2022-08-07T10:31:06.085Z,30.59
2022-08-07T10:34:14.043Z,30.79
2022-08-07T10:36:59.093Z,31.09
2022-08-07T10:40:05.276Z,31.39
2022-08-07T10:42:40.921Z,31.50
2022-08-07T10:45:57.667Z,31.57
2022-08-07T10:48:52.731Z,31.61
2022-08-07T10:52:01.855Z,31.68
2022-08-07T10:55:01.537Z,31.95
2022-08-07T10:57:51.547Z,31.87
2022-08-07T11:00:39.484Z,31.89
2022-08-07T11:03:17.142Z,32.00
2022-08-07T11:06:02.899Z,32.08
2022-08-07T11:08:51.773Z,32.25
2022-08-07T11:11:25.722Z,32.45
2022-08-07T11:14:45.309Z,32.56
2022-08-07T11:17:02.101Z,32.89
2022-08-07T11:19:53.111Z,33.11
2022-08-07T11:22:43.972Z,33.31
2022-08-07T11:25:25.837Z,33.25
2022-08-07T11:28:04.053Z,33.31
2022-08-07T11:31:11.619Z,33.56
2022-08-07T11:34:17.253Z,33.67
2022-08-07T11:36:52.379Z,33.70
2022-08-07T11:40:00.415Z,33.58
2022-08-07T11:43:15.368Z,33.41
2022-08-07T11:46:19.208Z,33.36
2022-08-07T11:49:51.599Z,33.21
2022-08-07T11:52:37.693Z,33.14
2022-08-07T11:56:25.082Z,33.26
2022-08-07T11:58:38.844Z,33.30
2022-08-07T12:01:11.431Z,33.45
2022-08-07T12:04:06.751Z,33.42
2022-08-07T12:06:50.906Z,33.20
2022-08-07T12:09:46.208Z,33.04
2022-08-07T12:13:11.632Z,33.09
2022-08-07T12:16:07.075Z,33.02
2022-08-07T12:18:51.156Z,33.05
2022-08-07T12:21:55.869Z,33.19
2022-08-07T12:24:37.854Z,33.24
2022-08-07T12:27:15.918Z,33.18
2022-08-07T12:29:53.731Z,33.12
2022-08-07T12:32:34.774Z,33.06
2022-08-07T12:35:08.371Z,32.87
2022-08-07T12:38:10.759Z,32.79
2022-08-07T12:40:47.375Z,32.75
2022-08-07T12:44:02.573Z,32.72
2022-08-07T12:46:15.901Z,32.54
2022-08-07T12:49:39.927Z,32.29
2022-08-07T12:52:14.429Z,32.11
2022-08-07T12:54:54.607Z,32.04
2022-08-07T12:57:59.159Z,31.97
2022-08-07T13:00:31.037Z,32.07
2022-08-07T13:03:26.874Z,32.11
2022-08-07T13:06:27.617Z,32.17
2022-08-07T13:10:20.115Z,32.15
2022-08-07T13:12:36.398Z,32.11
2022-08-07T13:15:34.570Z,32.10
2022-08-07T13:18:28.340Z,32.15
2022-08-07T13:21:51.237Z,32.17
2022-08-07T13:24:33.160Z,32.06
2022-08-07T13:27:13.157Z,32.01
2022-08-07T13:30:05.176Z,32.04
2022-08-07T13:32:55.515Z,31.97
2022-08-07T13:36:00.949Z,31.94
2022-08-07T13:38:24.681Z,32.05
2022-08-07T13:41:20.696Z,32.13
2022-08-07T13:43:52.643Z,32.15
2022-08-07T13:46:32.759Z,32.33
2022-08-07T13:49:01.678Z,32.49
2022-08-07T13:52:22.943Z,32.56
2022-08-07T13:54:23.790Z,32.70
2022-08-07T13:56:59.470Z,32.85
2022-08-07T13:59:33.257Z,32.95
2022-08-07T14:02:10.362Z,33.02
2022-08-07T14:05:05.527Z,33.06
2022-08-07T14:08:00.960Z,33.23
2022-08-07T14:10:42.290Z,33.44
2022-08-07T14:13:18.018Z,33.60
2022-08-07T14:15:53.220Z,33.52
2022-08-07T14:18:31.369Z,33.67
2022-08-07T14:21:08.441Z,33.69
2022-08-07T14:24:00.911Z,33.72
2022-08-07T14:26:56.384Z,33.67
2022-08-07T14:30:09.807Z,33.58
2022-08-07T14:32:16.103Z,33.65
2022-08-07T14:34:48.193Z,33.82
2022-08-07T14:37:19.479Z,33.92
2022-08-07T14:40:17.257Z,33.92
2022-08-07T14:42:59.932Z,33.86
2022-08-07T14:45:51.399Z,33.92
2022-08-07T14:48:27.275Z,34.05
2022-08-07T14:50:56.743Z,34.15
2022-08-07T14:54:03.758Z,34.23
2022-08-07T14:56:15.706Z,34.28
2022-08-07T14:59:02.064Z,34.14
2022-08-07T15:01:42.646Z,34.09
2022-08-07T15:04:11.660Z,34.07
2022-08-07T15:06:40.642Z,34.06
2022-08-07T15:09:57.608Z,34.24
2022-08-07T15:12:25.496Z,34.15
2022-08-07T15:15:08.237Z,34.13
2022-08-07T15:17:54.649Z,34.17
2022-08-07T15:23:22.385Z,34.60
2022-08-07T15:30:04.546Z,34.55
2022-08-07T15:31:57.671Z,34.44
2022-08-07T15:34:33.565Z,34.34
2022-08-07T15:37:07.090Z,34.25
2022-08-07T15:42:44.581Z,34.20
2022-08-07T15:45:22.324Z,34.26
2022-08-07T15:48:00.876Z,34.15
2022-08-07T15:53:52.137Z,34.07
2022-08-07T15:56:24.628Z,34.00
2022-08-07T15:58:58.834Z,33.86
2022-08-07T16:01:39.115Z,34.00
2022-08-07T16:04:15.218Z,34.18
2022-08-07T16:06:51.668Z,34.20
2022-08-07T16:09:40.934Z,34.34
2022-08-07T16:12:25.133Z,34.45
2022-08-07T16:15:54.619Z,34.32
2022-08-07T16:18:49.952Z,34.00
2022-08-07T16:21:53.481Z,33.82
2022-08-07T16:24:34.232Z,33.79
2022-08-07T16:27:40.663Z,33.95
2022-08-07T16:30:30.391Z,33.91
2022-08-07T16:34:01.920Z,33.98
2022-08-07T16:36:06.743Z,33.97
2022-08-07T16:39:06.079Z,33.95
2022-08-07T16:41:55.374Z,33.79
2022-08-07T16:44:57.217Z,33.74
2022-08-07T16:47:57.077Z,33.70
2022-08-07T16:51:07.225Z,33.68
2022-08-07T16:54:02.290Z,33.25
2022-08-07T16:56:48.992Z,32.71
2022-08-07T16:59:19.850Z,32.31
2022-08-07T17:02:51.357Z,32.00
2022-08-07T17:06:19.850Z,31.62
2022-08-07T17:09:09.233Z,31.30
2022-08-07T17:12:01.528Z,30.88
2022-08-07T17:14:41.872Z,30.66
2022-08-07T17:17:44.261Z,30.39
2022-08-07T17:20:37.478Z,30.10
2022-08-07T17:23:22.520Z,29.85
2022-08-07T17:26:04.363Z,29.64
2022-08-07T17:28:38.242Z,29.40
2022-08-07T17:31:44.166Z,29.27
2022-08-07T17:34:40.995Z,29.06
2022-08-07T17:38:06.529Z,28.78
2022-08-07T17:40:30.277Z,28.72
2022-08-07T17:43:17.848Z,28.60
2022-08-07T17:45:55.547Z,28.42
2022-08-07T17:48:33.405Z,28.27
2022-08-07T17:51:11.594Z,28.12
2022-08-07T17:54:00.165Z,28.05
2022-08-07T17:56:36.310Z,27.82
2022-08-07T17:59:35.412Z,27.79
2022-08-07T18:02:38.724Z,27.64
2022-08-07T18:05:21.299Z,27.63
2022-08-07T18:08:24.477Z,27.46
2022-08-07T18:12:08.250Z,27.29
2022-08-07T18:14:23.763Z,27.19
2022-08-07T18:17:07.424Z,27.13
2022-08-07T18:21:06.660Z,27.00
2022-08-07T18:23:05.343Z,26.92
2022-08-07T18:26:01.186Z,26.76
2022-08-07T18:28:57.941Z,26.73
2022-08-07T18:31:38.906Z,26.68
2022-08-07T18:34:36.991Z,26.55
2022-08-07T18:38:57.674Z,26.41
2022-08-07T18:40:39.846Z,26.42
2022-08-07T18:43:36.705Z,26.34
2022-08-07T18:46:25.764Z,26.26
2022-08-07T18:50:32.866Z,26.16
2022-08-07T18:52:53.820Z,26.07
2022-08-07T18:55:42.909Z,25.97
2022-08-07T18:58:33.974Z,25.90
2022-08-07T19:02:17.324Z,25.81
2022-08-07T19:04:54.747Z,25.71
2022-08-07T19:07:34.990Z,25.53
2022-08-07T19:10:14.837Z,25.53
2022-08-07T19:13:10.053Z,25.42
2022-08-07T19:16:04.329Z,25.40
2022-08-07T19:19:14.310Z,25.30
2022-08-07T19:21:56.862Z,25.21
2022-08-07T19:24:43.226Z,25.16
2022-08-07T19:28:56.697Z,25.01
2022-08-07T19:31:05.190Z,24.96
2022-08-07T19:32:59.752Z,24.92
2022-08-07T19:35:28.333Z,24.82
2022-08-07T19:38:04.339Z,24.73
2022-08-07T19:40:50.515Z,24.63
2022-08-07T19:43:50.195Z,24.56
2022-08-07T19:46:11.700Z,24.45
2022-08-07T19:48:53.729Z,24.36
2022-08-07T19:51:50.874Z,24.20
2022-08-07T19:54:31.938Z,24.21
2022-08-07T19:57:56.856Z,24.12
2022-08-07T20:00:10.017Z,24.04
2022-08-07T20:02:52.035Z,23.91
2022-08-07T20:05:28.175Z,23.87
2022-08-07T20:08:02.125Z,23.84
2022-08-07T20:10:54.483Z,23.77
2022-08-07T20:13:37.378Z,23.70
2022-08-07T20:16:15.970Z,23.66
2022-08-07T20:19:00.067Z,23.44
2022-08-07T20:21:41.679Z,23.46
2022-08-07T20:24:35.753Z,23.39
2022-08-07T20:27:11.668Z,23.29
2022-08-07T20:29:56.743Z,23.14
2022-08-07T20:32:39.945Z,23.14
2022-08-07T20:35:10.731Z,23.10
2022-08-07T20:37:55.205Z,23.07
2022-08-07T20:40:32.165Z,23.01
2022-08-07T20:43:02.208Z,22.88
2022-08-07T20:45:32.679Z,22.80
2022-08-07T20:48:25.803Z,22.69
2022-08-07T20:50:59.606Z,22.63
2022-08-07T20:54:04.543Z,22.54
2022-08-07T20:56:16.578Z,22.32
2022-08-07T20:58:53.891Z,22.22
2022-08-07T21:01:22.252Z,22.18
2022-08-07T21:04:13.377Z,22.02
2022-08-07T21:06:53.237Z,22.01
2022-08-07T21:09:24.475Z,21.94
2022-08-07T21:11:55.826Z,21.91
2022-08-07T21:14:48.423Z,21.81
2022-08-07T21:18:02.950Z,21.61
2022-08-07T21:20:18.937Z,21.53
2022-08-07T21:22:57.355Z,21.48
2022-08-07T21:25:39.071Z,21.29
2022-08-07T21:28:50.071Z,21.27
2022-08-07T21:31:49.613Z,21.06
2022-08-07T21:34:46.072Z,21.00
2022-08-07T21:37:58.864Z,20.92
2022-08-07T21:40:38.364Z,20.85
2022-08-07T21:43:13.873Z,20.66
2022-08-07T21:46:10.269Z,20.65
2022-08-07T21:48:48.143Z,20.58
2022-08-07T21:51:26.668Z,20.51
2022-08-07T21:54:18.735Z,20.39
2022-08-07T21:57:03.481Z,20.30
2022-08-07T22:00:04.073Z,20.11
2022-08-07T22:02:48.219Z,20.06
2022-08-07T22:05:21.810Z,20.07
2022-08-07T22:08:10.513Z,19.96
2022-08-07T22:10:42.401Z,19.97
2022-08-07T22:13:14.396Z,19.84
2022-08-07T22:16:38.482Z,19.89
2022-08-07T22:19:18.161Z,19.84
2022-08-07T22:22:01.695Z,19.80
2022-08-07T22:24:45.772Z,19.66
2022-08-07T22:27:56.293Z,19.45
2022-08-07T22:30:20.129Z,19.57
2022-08-07T22:32:58.069Z,19.60
2022-08-07T22:35:39.597Z,19.53
2022-08-07T22:38:25.736Z,19.53
2022-08-07T22:41:20.267Z,19.47
2022-08-07T22:43:56.026Z,19.41
2022-08-07T22:47:06.529Z,19.40
2022-08-07T22:50:07.041Z,19.35
2022-08-07T22:52:59.438Z,19.34
2022-08-07T22:55:30.134Z,19.31
2022-08-07T22:58:34.032Z,19.30
2022-08-07T23:01:51.959Z,19.35
2022-08-07T23:04:58.563Z,19.37
2022-08-07T23:08:22.613Z,19.39
2022-08-07T23:11:13.562Z,19.40
2022-08-07T23:14:19.820Z,19.39
2022-08-07T23:16:58.488Z,19.40
2022-08-07T23:20:02.804Z,19.42
2022-08-07T23:22:40.100Z,19.46
2022-08-07T23:25:28.573Z,19.49
2022-08-07T23:28:21.189Z,19.47
2022-08-07T23:31:18.597Z,19.53
2022-08-07T23:34:45.094Z,19.44
2022-08-07T23:37:30.185Z,19.52
2022-08-07T23:40:18.159Z,19.45
2022-08-07T23:43:16.875Z,19.42
2022-08-07T23:46:10.830Z,19.35
2022-08-07T23:48:56.155Z,19.28
2022-08-07T23:53:00.668Z,19.13
2022-08-07T23:54:45.932Z,19.18
2022-08-07T23:57:41.245Z,19.14
